City Of Cleveland — WDC2358 — position and weather

sailwx.info

Track history (hours):
 
Tides and Currents Weather Stations Pressure Air Temp Water Temp Dewpoint Dewpoint Depression Visibility Wind Speed Wind Dir Waves Ship Positions

City Of Cleveland

Owner: JANTRAN, INC., ROSEDALE, MS. More information available from US FCC via Universal Licensing System and Coast Guard Vessel Documentation Center.

Last reported at 2017-Sep-24 16:13 UTC. Time now 2017-Sep-25 17:19 UTC.
Position N 32°40' W 091°08'.

Length 42 m; draft 12.5 m.

Type: Towing. MMSI: 366991810.

Date/timePositionNaut miles runAvg speedWind from/ knotsBaromVisibWave heightAir tempDewpointWater temp
2017-Sep-24 16:13N 32°40' W 091°08'3 2.2
2017-Sep-24 14:53N 32°38' W 091°09'1 2.9
2017-Sep-24 14:30N 32°37' W 091°09'2 4.0
2017-Sep-24 14:00N 32°35' W 091°07'2 3.6
2017-Sep-24 13:30N 32°34' W 091°06'3 3.7
2017-Sep-24 12:40N 32°31' W 091°07'1 4.8
2017-Sep-24 12:30N 32°30' W 091°07'2 4.1
2017-Sep-24 12:00N 32°28' W 091°06'2 3.7
2017-Sep-24 11:30N 32°27' W 091°05'2 4.0
2017-Sep-24 11:00N 32°26' W 091°02'2 3.9
2017-Sep-24 10:30N 32°25' W 091°00'2 3.2
2017-Sep-24 10:00N 32°24' W 090°59'2 4.2
2017-Sep-24 09:30N 32°22' W 091°00'2 4.4
2017-Sep-24 09:00N 32°21' W 090°58'2 4.3
2017-Sep-24 08:30N 32°21' W 090°55'2 3.5
2017-Sep-24 08:00N 32°19' W 090°54'2 4.6
2017-Sep-24 07:30N 32°18' W 090°56'2 4.5
2017-Sep-24 07:00N 32°16' W 090°58'2 3.6
2017-Sep-24 06:30N 32°15' W 090°59'2 4.5
2017-Sep-24 06:00N 32°12' W 090°59'2 4.1
2017-Sep-24 05:30N 32°10' W 090°60'2 4.1
2017-Sep-24 05:00N 32°08' W 091°00'2 3.9
2017-Sep-24 04:30N 32°07' W 091°02'2 4.0
2017-Sep-24 03:57N 32°08' W 091°05'2 3.9
2017-Sep-24 03:30N 32°08' W 091°06'3 3.5
2017-Sep-24 02:38N 32°05' W 091°04'0 1.1
2017-Sep-24 02:30N 32°05' W 091°04'1 2.6
2017-Sep-24 02:00N 32°04' W 091°03'2 4.0
2017-Sep-24 01:30N 32°02' W 091°04'2 4.6
2017-Sep-24 01:00N 31°60' W 091°05'2 3.8
2017-Sep-24 00:30N 31°59' W 091°07'3 4.0
2017-Sep-23 23:51N 31°59' W 091°11'  
2017-Sep-20 03:18N 29°57' W 090°22'  
Track history (hours):
 
Tides and Currents Weather Stations Pressure Air Temp Water Temp Dewpoint Dewpoint Depression Visibility Wind Speed Wind Dir Waves Ship Positions

City Of Cleveland

Owner: JANTRAN, INC., ROSEDALE, MS. More information available from US FCC via Universal Licensing System and Coast Guard Vessel Documentation Center.

Last reported at 2017-Sep-24 16:13 UTC. Time now 2017-Sep-25 17:19 UTC.
Position N 32°40' W 091°08'.

Length 42 m; draft 12.5 m.

Type: Towing. MMSI: 366991810.

Date/timePositionNaut miles runAvg speedWind from/ knotsBaromVisibWave heightAir tempDewpointWater temp
2017-Sep-24 16:13N 32°40' W 091°08'3 2.2
2017-Sep-24 14:53N 32°38' W 091°09'1 2.9
2017-Sep-24 14:30N 32°37' W 091°09'2 4.0
2017-Sep-24 14:00N 32°35' W 091°07'2 3.6
2017-Sep-24 13:30N 32°34' W 091°06'3 3.7
2017-Sep-24 12:40N 32°31' W 091°07'1 4.8
2017-Sep-24 12:30N 32°30' W 091°07'2 4.1
2017-Sep-24 12:00N 32°28' W 091°06'2 3.7
2017-Sep-24 11:30N 32°27' W 091°05'2 4.0
2017-Sep-24 11:00N 32°26' W 091°02'2 3.9
2017-Sep-24 10:30N 32°25' W 091°00'2 3.2
2017-Sep-24 10:00N 32°24' W 090°59'2 4.2
2017-Sep-24 09:30N 32°22' W 091°00'2 4.4
2017-Sep-24 09:00N 32°21' W 090°58'2 4.3
2017-Sep-24 08:30N 32°21' W 090°55'2 3.5
2017-Sep-24 08:00N 32°19' W 090°54'2 4.6
2017-Sep-24 07:30N 32°18' W 090°56'2 4.5
2017-Sep-24 07:00N 32°16' W 090°58'2 3.6
2017-Sep-24 06:30N 32°15' W 090°59'2 4.5
2017-Sep-24 06:00N 32°12' W 090°59'2 4.1
2017-Sep-24 05:30N 32°10' W 090°60'2 4.1
2017-Sep-24 05:00N 32°08' W 091°00'2 3.9
2017-Sep-24 04:30N 32°07' W 091°02'2 4.0
2017-Sep-24 03:57N 32°08' W 091°05'2 3.9
2017-Sep-24 03:30N 32°08' W 091°06'3 3.5
2017-Sep-24 02:38N 32°05' W 091°04'0 1.1
2017-Sep-24 02:30N 32°05' W 091°04'1 2.6
2017-Sep-24 02:00N 32°04' W 091°03'2 4.0
2017-Sep-24 01:30N 32°02' W 091°04'2 4.6
2017-Sep-24 01:00N 31°60' W 091°05'2 3.8
2017-Sep-24 00:30N 31°59' W 091°07'3 4.0
2017-Sep-23 23:51N 31°59' W 091°11'  
2017-Sep-20 03:18N 29°57' W 090°22'  

Dump ship's entire track history